createdAt,value
2023-03-01T00:04:48.086Z,78.80
2023-03-01T00:09:50.463Z,72.93
2023-03-01T00:14:52.798Z,69.43
2023-03-01T00:19:55.173Z,64.03
2023-03-01T00:24:57.625Z,98.00
2023-03-01T00:30:00.125Z,69.27
2023-03-01T00:35:02.543Z,63.33
2023-03-01T00:40:07.187Z,53.40
2023-03-01T00:45:09.988Z,48.67
2023-03-01T00:50:13.108Z,49.53
2023-03-01T00:55:15.792Z,53.43
2023-03-01T01:00:19.354Z,49.53
2023-03-01T01:05:23.693Z,55.83
2023-03-01T01:10:26.028Z,49.00
2023-03-01T01:15:28.598Z,51.57
2023-03-01T01:20:30.985Z,51.53
2023-03-01T01:25:37.050Z,49.87
2023-03-01T01:30:39.371Z,49.30
2023-03-01T01:35:41.723Z,54.67
2023-03-01T01:40:48.598Z,54.70
2023-03-01T01:45:51.978Z,48.40
2023-03-01T01:51:01.808Z,52.17
2023-03-01T01:56:08.265Z,49.50
2023-03-01T02:01:11.460Z,49.87
2023-03-01T02:06:33.000Z,46.70
2023-03-01T02:11:38.602Z,43.27
2023-03-01T02:16:42.422Z,41.70
2023-03-01T02:21:58.200Z,42.50
2023-03-01T02:27:01.826Z,40.43
2023-03-01T02:32:06.004Z,41.20
2023-03-01T02:37:15.791Z,40.00
2023-03-01T02:42:26.197Z,47.03
2023-03-01T02:47:29.730Z,40.20
2023-03-01T02:52:42.468Z,41.83
2023-03-01T02:57:47.458Z,42.53
2023-03-01T03:02:55.001Z,44.93
2023-03-01T03:08:02.222Z,43.00
2023-03-01T03:13:10.845Z,39.13
2023-03-01T03:18:16.257Z,41.80
2023-03-01T03:23:18.557Z,42.30
2023-03-01T03:28:20.977Z,42.13
2023-03-01T03:33:23.367Z,41.73
2023-03-01T03:38:26.143Z,47.03
2023-03-01T03:43:29.093Z,42.80
2023-03-01T03:48:31.405Z,44.53
2023-03-01T03:53:33.972Z,43.67
2023-03-01T03:58:36.829Z,38.83
2023-03-01T04:03:39.105Z,37.27
2023-03-01T04:08:42.024Z,36.67
2023-03-01T04:13:44.308Z,40.30
2023-03-01T04:18:46.784Z,46.63
2023-03-01T04:23:49.334Z,41.03
2023-03-01T04:28:51.780Z,38.77
2023-03-01T04:33:56.343Z,38.07
2023-03-01T04:38:58.737Z,44.40
2023-03-01T04:44:01.080Z,46.77
2023-03-01T04:49:04.119Z,44.43
2023-03-01T04:54:09.738Z,59.50
2023-03-01T04:59:13.628Z,47.70
2023-03-01T05:04:16.161Z,43.00
2023-03-01T05:09:18.477Z,43.00
2023-03-01T05:14:20.809Z,44.40
2023-03-01T05:19:23.815Z,78.83
2023-03-01T05:24:26.481Z,120.27
2023-03-01T05:29:31.330Z,64.63
2023-03-01T05:34:36.546Z,55.37
2023-03-01T05:39:38.893Z,80.60
2023-03-01T05:44:41.431Z,68.07
2023-03-01T05:49:43.794Z,47.70
2023-03-01T05:54:46.928Z,44.60
2023-03-01T05:59:49.437Z,43.27
2023-03-01T06:04:51.820Z,67.70
2023-03-01T06:09:54.195Z,54.63
2023-03-01T06:14:56.524Z,51.30
2023-03-01T06:19:59.067Z,49.40
2023-03-01T06:25:01.583Z,57.37
2023-03-01T06:30:04.609Z,45.83
2023-03-01T06:35:07.280Z,40.97
2023-03-01T06:40:12.549Z,51.63
2023-03-01T06:45:14.996Z,52.70
2023-03-01T06:50:18.407Z,60.87
2023-03-01T06:55:20.735Z,80.13
2023-03-01T07:00:23.978Z,61.80
2023-03-01T07:05:26.379Z,59.03
2023-03-01T07:10:28.951Z,56.27
2023-03-01T07:15:31.233Z,58.07
2023-03-01T07:20:33.736Z,57.53
2023-03-01T07:25:36.115Z,52.77
2023-03-01T07:30:38.787Z,48.70
2023-03-01T07:35:41.207Z,48.37
2023-03-01T07:40:43.529Z,44.20
2023-03-01T07:45:46.000Z,41.30
2023-03-01T07:50:48.539Z,42.67
2023-03-01T07:55:50.874Z,41.87
2023-03-01T08:00:53.659Z,42.37
2023-03-01T08:05:56.124Z,37.73
2023-03-01T08:11:02.804Z,36.57
2023-03-01T08:16:08.573Z,26.47
2023-03-01T08:21:16.561Z,19.33
2023-03-01T08:26:21.235Z,16.00
2023-03-01T08:31:30.838Z,15.23
2023-03-01T08:36:38.196Z,27.10
2023-03-01T08:41:40.952Z,17.63
2023-03-01T08:46:44.737Z,16.87
2023-03-01T08:51:48.472Z,13.17
2023-03-01T08:56:51.174Z,13.07
2023-03-01T09:01:54.553Z,14.93
2023-03-01T09:06:56.859Z,12.87
2023-03-01T09:11:59.203Z,12.73
2023-03-01T09:17:04.038Z,14.27
2023-03-01T09:22:06.625Z,10.67
2023-03-01T09:27:09.770Z,7.20
2023-03-01T09:32:12.132Z,6.07
2023-03-01T09:37:17.306Z,6.07
2023-03-01T09:42:19.653Z,6.70
2023-03-01T09:47:31.938Z,5.77
2023-03-01T09:52:34.420Z,6.30
2023-03-01T09:57:57.168Z,5.23
2023-03-01T10:03:04.424Z,5.27
2023-03-01T10:08:09.692Z,7.70
2023-03-01T10:13:16.586Z,6.80
2023-03-01T10:18:23.953Z,6.20
2023-03-01T10:23:29.174Z,6.20
2023-03-01T10:28:59.808Z,6.23
2023-03-01T10:34:02.546Z,6.43
2023-03-01T10:39:13.863Z,6.90
2023-03-01T10:44:37.734Z,6.30
2023-03-01T10:49:40.118Z,6.13
2023-03-01T10:54:52.031Z,6.20
2023-03-01T11:00:12.082Z,5.77
2023-03-01T11:05:14.827Z,6.80
2023-03-01T11:10:23.589Z,7.17
2023-03-01T11:15:28.692Z,8.30
2023-03-01T11:20:37.632Z,7.43
2023-03-01T11:25:43.613Z,6.30
2023-03-01T11:31:07.642Z,5.80
2023-03-01T11:36:35.309Z,6.73
2023-03-01T11:41:41.720Z,6.30
2023-03-01T11:47:38.821Z,6.30
2023-03-01T11:52:57.929Z,5.30
2023-03-01T11:58:26.335Z,7.27
2023-03-01T12:03:53.452Z,4.97
2023-03-01T12:09:13.303Z,5.40
2023-03-01T12:14:40.129Z,4.80
2023-03-01T12:20:15.950Z,4.80
2023-03-01T12:25:43.065Z,4.90
2023-03-01T12:31:14.615Z,4.30
2023-03-01T12:36:32.879Z,4.70
2023-03-01T12:41:41.568Z,4.70
2023-03-01T12:47:19.852Z,4.90
2023-03-01T12:52:42.039Z,5.03
2023-03-01T12:57:51.307Z,4.07
2023-03-01T13:03:16.145Z,4.90
2023-03-01T13:08:29.710Z,5.57
2023-03-01T13:13:45.224Z,5.50
2023-03-01T13:18:47.645Z,5.47
2023-03-01T13:23:50.185Z,5.70
2023-03-01T13:28:56.728Z,5.10
2023-03-01T13:34:08.389Z,5.00
2023-03-01T13:39:39.523Z,4.77
2023-03-01T13:44:44.613Z,5.93
2023-03-01T13:49:51.637Z,5.40
2023-03-01T13:54:54.777Z,5.80
2023-03-01T13:59:57.019Z,4.90
2023-03-01T14:05:01.310Z,4.80
2023-03-01T14:10:06.914Z,4.80
2023-03-01T14:15:45.035Z,4.63
2023-03-01T14:20:52.224Z,15.10
2023-03-01T14:25:59.127Z,5.10
2023-03-01T14:31:02.422Z,15.10
2023-03-01T14:36:07.116Z,5.93
2023-03-01T14:41:22.161Z,5.40
2023-03-01T14:46:40.881Z,30.90
2023-03-01T14:51:57.446Z,7.03
2023-03-01T14:57:02.010Z,5.20
2023-03-01T15:02:04.602Z,4.83
2023-03-01T15:07:07.069Z,4.67
2023-03-01T15:12:27.890Z,4.60
2023-03-01T15:17:40.134Z,4.80
2023-03-01T15:22:49.482Z,4.17
2023-03-01T15:27:53.941Z,9.00
2023-03-01T15:33:29.493Z,4.73
2023-03-01T15:38:52.864Z,5.07
2023-03-01T15:43:56.785Z,5.50
2023-03-01T15:49:02.796Z,5.70
2023-03-01T15:54:11.813Z,5.97
2023-03-01T15:59:15.051Z,6.03
2023-03-01T16:04:24.062Z,6.23
2023-03-01T16:09:27.636Z,7.20
2023-03-01T16:14:30.366Z,35.63
2023-03-01T16:19:32.996Z,11.93
2023-03-01T16:24:36.886Z,13.30
2023-03-01T16:29:39.236Z,10.70
2023-03-01T16:34:42.024Z,12.10
2023-03-01T16:39:44.412Z,13.30
2023-03-01T16:44:49.924Z,27.98
2023-03-01T16:49:55.646Z,19.77
2023-03-01T16:54:58.282Z,17.80
2023-03-01T17:00:00.772Z,18.97
2023-03-01T17:05:04.078Z,18.00
2023-03-01T17:10:09.756Z,42.97
2023-03-01T17:15:12.997Z,29.50
2023-03-01T17:20:15.726Z,20.70
2023-03-01T17:25:18.070Z,15.97
2023-03-01T17:30:20.480Z,17.97
2023-03-01T17:35:23.061Z,17.20
2023-03-01T17:40:25.361Z,12.33
2023-03-01T17:45:27.671Z,14.70
2023-03-01T17:50:30.025Z,11.67
2023-03-01T17:55:32.326Z,13.20
2023-03-01T18:00:35.474Z,20.47
2023-03-01T18:05:38.135Z,14.30
2023-03-01T18:10:40.763Z,11.87
2023-03-01T18:15:43.078Z,11.60
2023-03-01T18:20:45.870Z,11.40
2023-03-01T18:25:48.335Z,10.87
2023-03-01T18:30:56.815Z,10.10
2023-03-01T18:35:59.264Z,12.13
2023-03-01T18:41:01.643Z,10.40
2023-03-01T18:46:05.370Z,19.47
2023-03-01T18:51:19.407Z,29.83
2023-03-01T18:56:21.945Z,32.07
2023-03-01T19:01:25.975Z,29.33
2023-03-01T19:06:31.967Z,21.23
2023-03-01T19:11:35.622Z,15.97
2023-03-01T19:16:38.328Z,16.73
2023-03-01T19:21:40.672Z,15.13
2023-03-01T19:26:43.223Z,20.57
2023-03-01T19:31:45.585Z,40.73
2023-03-01T19:36:48.557Z,23.70
2023-03-01T19:41:50.859Z,22.53
2023-03-01T19:46:54.263Z,24.13
2023-03-01T19:51:56.585Z,27.33
2023-03-01T19:57:00.510Z,22.57
2023-03-01T20:02:03.905Z,23.77
2023-03-01T20:07:06.375Z,25.63
2023-03-01T20:12:08.676Z,22.73
2023-03-01T20:17:11.052Z,25.00
2023-03-01T20:22:15.248Z,24.70
2023-03-01T20:27:18.608Z,33.10
2023-03-01T20:32:20.925Z,25.50
2023-03-01T20:37:23.278Z,27.53
2023-03-01T20:42:25.560Z,27.30
2023-03-01T20:47:27.847Z,47.00
2023-03-01T20:52:36.622Z,51.93
2023-03-01T20:57:50.036Z,39.07
2023-03-01T21:02:53.435Z,48.50
2023-03-01T21:07:55.736Z,46.57
2023-03-01T21:12:58.053Z,43.33
2023-03-01T21:18:00.368Z,44.33
2023-03-01T21:23:02.652Z,30.23
2023-03-01T21:28:05.014Z,26.53
2023-03-01T21:33:07.348Z,22.97
2023-03-01T21:38:09.683Z,22.73
2023-03-01T21:43:11.966Z,23.30
2023-03-01T21:48:14.489Z,263.27
2023-03-01T21:53:16.747Z,55.30
2023-03-01T21:58:19.732Z,52.83
2023-03-01T22:03:22.550Z,64.27
2023-03-01T22:08:25.272Z,31.20
2023-03-01T22:13:27.601Z,33.57
2023-03-01T22:18:29.908Z,30.23
2023-03-01T22:23:34.265Z,33.53
2023-03-01T22:28:36.577Z,26.00
2023-03-01T22:33:38.872Z,35.27
2023-03-01T22:38:41.852Z,36.67
2023-03-01T22:43:44.137Z,37.63
2023-03-01T22:48:47.376Z,38.10
2023-03-01T22:53:49.840Z,44.97
2023-03-01T22:58:52.546Z,41.73
2023-03-01T23:03:54.922Z,45.27
2023-03-01T23:09:00.181Z,71.30
2023-03-01T23:14:02.527Z,35.77
2023-03-01T23:19:04.791Z,32.70
2023-03-01T23:24:07.237Z,31.90
2023-03-01T23:29:09.600Z,31.20
2023-03-01T23:34:11.997Z,34.17
2023-03-01T23:39:14.725Z,33.17
2023-03-01T23:44:19.512Z,50.37
2023-03-01T23:49:23.895Z,51.70
2023-03-01T23:54:26.255Z,49.17
2023-03-01T23:59:28.553Z,43.87
